createdAt,value
2018-01-18T00:00:35.923Z,8.41
2018-01-18T00:03:04.304Z,8.00
2018-01-18T00:05:32.668Z,8.15
2018-01-18T00:08:01.045Z,8.00
2018-01-18T00:10:29.437Z,7.82
2018-01-18T00:12:57.816Z,7.84
2018-01-18T00:15:26.211Z,7.79
2018-01-18T00:17:54.675Z,7.81
2018-01-18T00:20:23.042Z,7.85
2018-01-18T00:22:52.199Z,7.81
2018-01-18T00:25:20.558Z,7.48
2018-01-18T00:27:49.326Z,7.89
2018-01-18T00:30:17.686Z,7.85
2018-01-18T00:32:46.035Z,7.98
2018-01-18T00:35:14.404Z,8.15
2018-01-18T00:37:42.751Z,8.05
2018-01-18T00:40:11.521Z,8.17
2018-01-18T00:42:39.890Z,8.11
2018-01-18T00:45:08.253Z,8.31
2018-01-18T00:47:36.608Z,7.89
2018-01-18T00:50:04.966Z,7.78
2018-01-18T00:52:33.349Z,8.25
2018-01-18T00:55:01.697Z,8.60
2018-01-18T00:57:30.056Z,8.86
2018-01-18T00:59:58.437Z,8.78
2018-01-18T01:02:27.691Z,8.62
2018-01-18T01:04:56.070Z,8.41
2018-01-18T01:07:24.440Z,8.26
2018-01-18T01:09:52.805Z,8.23
2018-01-18T01:12:21.580Z,8.26
2018-01-18T01:14:49.954Z,7.88
2018-01-18T01:17:18.318Z,8.13
2018-01-18T01:19:46.704Z,8.35
2018-01-18T01:22:15.118Z,8.13
2018-01-18T01:24:43.485Z,8.15
2018-01-18T01:27:12.246Z,8.07
2018-01-18T01:29:40.619Z,8.32
2018-01-18T01:32:09.814Z,8.11
2018-01-18T01:34:38.194Z,8.39
2018-01-18T01:37:06.561Z,8.61
2018-01-18T01:39:34.924Z,8.43
2018-01-18T01:42:03.278Z,8.48
2018-01-18T01:44:31.659Z,8.40
2018-01-18T01:47:00.031Z,8.60
2018-01-18T01:49:28.400Z,8.29
2018-01-18T01:51:57.171Z,8.60
2018-01-18T01:54:25.534Z,8.75
2018-01-18T01:56:53.931Z,8.64
2018-01-18T01:59:22.293Z,8.57
2018-01-18T02:01:50.644Z,8.70
2018-01-18T02:04:19.149Z,8.91
2018-01-18T02:06:47.537Z,8.71
2018-01-18T02:09:16.027Z,8.70
2018-01-18T02:11:44.392Z,8.34
2018-01-18T02:14:12.748Z,8.62
2018-01-18T02:16:41.151Z,8.63
2018-01-18T02:19:09.506Z,8.54
2018-01-18T02:21:37.899Z,8.62
2018-01-18T02:24:26.351Z,8.40
2018-01-18T02:26:54.724Z,8.04
2018-01-18T02:29:23.083Z,8.04
2018-01-18T02:31:51.471Z,8.29
2018-01-18T02:34:19.861Z,8.53
2018-01-18T02:36:48.202Z,8.61
2018-01-18T02:39:16.915Z,8.36
2018-01-18T02:41:45.274Z,8.65
2018-01-18T02:44:13.653Z,8.20
2018-01-18T02:46:42.079Z,8.63
2018-01-18T02:49:10.453Z,8.35
2018-01-18T02:51:38.891Z,8.58
2018-01-18T02:54:07.313Z,8.78
2018-01-18T02:56:35.666Z,8.92
2018-01-18T02:59:04.174Z,9.09
2018-01-18T03:01:32.541Z,9.08
2018-01-18T03:04:00.929Z,9.17
2018-01-18T03:06:29.279Z,9.05
2018-01-18T03:08:57.641Z,8.71
2018-01-18T03:11:26.007Z,9.08
2018-01-18T03:13:54.381Z,9.12
2018-01-18T03:16:22.751Z,9.11
2018-01-18T03:18:51.529Z,9.16
2018-01-18T03:21:19.880Z,8.89
2018-01-18T03:23:48.269Z,8.77
2018-01-18T03:26:16.628Z,8.75
2018-01-18T03:28:45.024Z,8.88
2018-01-18T03:31:13.376Z,8.98
2018-01-18T03:33:41.739Z,9.09
2018-01-18T03:36:10.172Z,9.00
2018-01-18T03:38:38.519Z,9.05
2018-01-18T03:41:06.913Z,9.00
2018-01-18T03:43:35.268Z,9.00
2018-01-18T03:46:03.679Z,8.90
2018-01-18T03:48:32.039Z,9.04
2018-01-18T03:51:00.416Z,9.05
2018-01-18T03:53:28.806Z,9.10
2018-01-18T03:55:57.202Z,9.30
2018-01-18T03:58:25.564Z,9.43
2018-01-18T04:00:53.931Z,9.45
2018-01-18T04:03:22.290Z,9.23
2018-01-18T04:05:50.714Z,9.08
2018-01-18T04:08:19.079Z,8.87
2018-01-18T04:10:47.455Z,9.09
2018-01-18T04:13:15.821Z,9.17
2018-01-18T04:15:44.180Z,8.82
2018-01-18T04:18:12.604Z,8.98
2018-01-18T04:20:40.978Z,8.81
2018-01-18T04:23:09.353Z,8.85
2018-01-18T04:25:37.730Z,8.92
2018-01-18T04:28:06.096Z,8.99
2018-01-18T04:30:34.527Z,8.66
2018-01-18T04:33:02.860Z,8.44
2018-01-18T04:35:31.231Z,8.44
2018-01-18T04:37:59.623Z,8.29
2018-01-18T04:40:27.991Z,8.58
2018-01-18T04:42:56.399Z,8.18
2018-01-18T04:45:24.754Z,8.26
2018-01-18T04:47:53.138Z,8.51
2018-01-18T04:50:21.540Z,8.27
2018-01-18T04:52:49.898Z,8.09
2018-01-18T04:55:18.276Z,7.96
2018-01-18T04:57:46.642Z,8.27
2018-01-18T05:00:15.036Z,8.51
2018-01-18T05:02:43.423Z,8.53
2018-01-18T05:05:11.783Z,8.03
2018-01-18T05:07:40.181Z,8.24
2018-01-18T05:10:08.543Z,8.00
2018-01-18T05:12:36.924Z,7.77
2018-01-18T05:15:05.289Z,7.88
2018-01-18T05:17:33.689Z,8.20
2018-01-18T05:20:02.174Z,8.39
2018-01-18T05:22:30.548Z,8.20
2018-01-18T05:24:58.960Z,8.19
2018-01-18T05:27:27.741Z,8.14
2018-01-18T05:29:56.095Z,8.09
2018-01-18T05:32:24.479Z,8.26
2018-01-18T05:34:52.848Z,7.91
2018-01-18T05:37:21.204Z,8.03
2018-01-18T05:39:49.604Z,7.84
2018-01-18T05:42:17.976Z,8.26
2018-01-18T05:44:46.356Z,8.12
2018-01-18T05:47:14.724Z,8.31
2018-01-18T05:49:43.089Z,8.15
2018-01-18T05:52:11.462Z,7.88
2018-01-18T05:54:39.884Z,7.88
2018-01-18T05:57:08.354Z,7.84
2018-01-18T05:59:36.731Z,7.57
2018-01-18T06:02:05.124Z,7.72
2018-01-18T06:04:33.486Z,7.67
2018-01-18T06:07:01.871Z,7.75
2018-01-18T06:09:30.347Z,7.87
2018-01-18T06:11:58.798Z,8.05
2018-01-18T06:14:27.160Z,7.81
2018-01-18T06:16:55.592Z,7.64
2018-01-18T06:19:23.975Z,7.88
2018-01-18T06:21:52.432Z,7.71
2018-01-18T06:24:20.846Z,7.60
2018-01-18T06:26:49.203Z,7.79
2018-01-18T06:29:18.250Z,7.44
2018-01-18T06:31:46.994Z,7.68
2018-01-18T06:34:15.397Z,7.79
2018-01-18T06:36:43.855Z,7.62
2018-01-18T06:39:12.240Z,7.69
2018-01-18T06:41:40.621Z,7.74
2018-01-18T06:44:09.000Z,7.66
2018-01-18T06:46:37.389Z,7.63
2018-01-18T06:49:06.184Z,7.90
2018-01-18T06:51:34.948Z,7.70
2018-01-18T06:54:03.315Z,7.96
2018-01-18T06:56:31.714Z,7.85
2018-01-18T06:59:00.145Z,7.94
2018-01-18T07:01:28.512Z,7.72
2018-01-18T07:03:56.887Z,7.81
2018-01-18T07:06:25.656Z,7.53
2018-01-18T07:08:54.155Z,7.56
2018-01-18T07:11:23.014Z,7.64
2018-01-18T07:13:51.379Z,7.28
2018-01-18T07:16:19.743Z,7.36
2018-01-18T07:18:48.144Z,7.39
2018-01-18T07:21:16.508Z,7.43
2018-01-18T07:23:44.900Z,7.17
2018-01-18T07:26:13.260Z,7.31
2018-01-18T07:28:41.616Z,7.61
2018-01-18T07:31:10.028Z,7.43
2018-01-18T07:33:38.396Z,6.95
2018-01-18T07:36:07.095Z,7.27
2018-01-18T07:38:35.480Z,7.53
2018-01-18T07:41:03.851Z,7.57
2018-01-18T07:43:32.250Z,7.55
2018-01-18T07:46:00.729Z,7.26
2018-01-18T07:48:29.182Z,7.74
2018-01-18T07:50:57.560Z,7.43
2018-01-18T07:53:25.952Z,7.30
2018-01-18T07:55:55.170Z,7.46
2018-01-18T07:58:23.543Z,7.77
2018-01-18T08:00:51.965Z,7.46
2018-01-18T08:03:25.789Z,7.58
2018-01-18T08:05:54.176Z,7.65
2018-01-18T08:08:23.154Z,7.75
2018-01-18T08:10:51.533Z,8.01
2018-01-18T08:13:19.896Z,7.78
2018-01-18T08:15:48.248Z,8.19
2018-01-18T08:18:16.714Z,7.86
2018-01-18T08:20:45.064Z,7.50
2018-01-18T08:23:13.504Z,7.68
2018-01-18T08:25:42.368Z,8.00
2018-01-18T08:28:10.729Z,7.78
2018-01-18T08:30:39.100Z,7.87
2018-01-18T08:33:07.473Z,7.76
2018-01-18T08:35:35.845Z,7.87
2018-01-18T08:38:04.259Z,8.19
2018-01-18T08:40:32.632Z,7.73
2018-01-18T08:43:01.016Z,7.80
2018-01-18T08:45:29.390Z,7.77
2018-01-18T08:47:57.752Z,7.84
2018-01-18T08:50:26.128Z,7.79
2018-01-18T08:52:54.524Z,8.46
2018-01-18T08:55:22.909Z,8.37
2018-01-18T08:57:51.385Z,8.03
2018-01-18T09:00:19.748Z,8.20
2018-01-18T09:02:48.127Z,8.32
2018-01-18T09:05:16.500Z,8.52
2018-01-18T09:08:06.133Z,8.40
2018-01-18T09:10:34.895Z,8.20
2018-01-18T09:13:03.300Z,8.25
2018-01-18T09:15:32.061Z,7.48
2018-01-18T09:18:00.415Z,7.69
2018-01-18T09:20:28.775Z,7.95
2018-01-18T09:22:57.140Z,7.59
2018-01-18T09:25:25.520Z,7.46
2018-01-18T09:27:53.868Z,7.55
2018-01-18T09:30:22.629Z,7.48
2018-01-18T09:32:51.040Z,7.42
2018-01-18T09:35:19.394Z,7.10
2018-01-18T09:37:47.890Z,7.21
2018-01-18T09:40:16.639Z,6.81
2018-01-18T09:42:44.995Z,6.93
2018-01-18T09:45:13.417Z,7.12
2018-01-18T09:47:41.764Z,6.86
2018-01-18T09:50:10.168Z,6.57
2018-01-18T09:52:38.646Z,6.97
2018-01-18T09:55:07.008Z,6.03
2018-01-18T09:57:35.444Z,6.01
2018-01-18T10:00:04.208Z,5.77
2018-01-18T10:02:32.592Z,5.82
2018-01-18T10:05:00.953Z,6.02
2018-01-18T10:07:29.348Z,5.53
2018-01-18T10:09:57.714Z,5.51
2018-01-18T10:12:26.084Z,5.42
2018-01-18T10:14:54.580Z,5.18
2018-01-18T10:17:22.944Z,4.91
2018-01-18T10:19:51.328Z,4.68
2018-01-18T10:22:19.708Z,4.71
2018-01-18T10:24:48.121Z,4.59
2018-01-18T10:27:16.893Z,4.17
2018-01-18T10:29:45.268Z,4.37
2018-01-18T10:32:13.632Z,4.52
2018-01-18T10:34:42.014Z,4.60
2018-01-18T10:37:10.383Z,4.80
2018-01-18T10:39:38.777Z,4.75
2018-01-18T10:42:07.144Z,4.63
2018-01-18T10:44:35.618Z,4.71
2018-01-18T10:47:04.394Z,4.63
2018-01-18T10:49:32.759Z,4.73
2018-01-18T10:52:01.131Z,4.36
2018-01-18T10:54:29.488Z,4.47
2018-01-18T10:56:58.352Z,4.37
2018-01-18T10:59:26.826Z,4.62
2018-01-18T11:01:55.197Z,4.70
2018-01-18T11:04:23.580Z,4.70
2018-01-18T11:06:51.943Z,4.54
2018-01-18T11:09:20.297Z,4.53
2018-01-18T11:11:48.663Z,4.53
2018-01-18T11:14:17.044Z,4.66
2018-01-18T11:16:46.368Z,4.51
2018-01-18T11:19:14.771Z,4.43
2018-01-18T11:21:43.300Z,4.57
2018-01-18T11:24:11.644Z,4.53
2018-01-18T11:26:40.009Z,4.75
2018-01-18T11:29:08.388Z,4.88
2018-01-18T11:31:36.768Z,4.59
2018-01-18T11:34:05.116Z,4.45
2018-01-18T11:36:33.495Z,4.96
2018-01-18T11:39:01.852Z,4.41
2018-01-18T11:41:30.223Z,4.66
2018-01-18T11:43:59.075Z,4.82
2018-01-18T11:46:28.135Z,4.96
2018-01-18T11:48:56.561Z,4.89
2018-01-18T11:51:24.927Z,5.17
2018-01-18T11:53:53.424Z,5.34
2018-01-18T11:56:21.788Z,5.65
2018-01-18T11:58:50.150Z,5.60
2018-01-18T12:01:18.514Z,5.83
2018-01-18T12:03:46.885Z,5.63
2018-01-18T12:06:15.264Z,5.86
2018-01-18T12:08:44.400Z,6.09
2018-01-18T12:11:12.762Z,6.25
2018-01-18T12:13:41.147Z,6.06
2018-01-18T12:16:09.520Z,5.99
2018-01-18T12:18:37.907Z,6.30
2018-01-18T12:21:06.261Z,6.29
2018-01-18T12:23:34.616Z,6.60
2018-01-18T12:26:03.148Z,6.63
2018-01-18T12:28:31.559Z,6.60
2018-01-18T12:31:00.345Z,6.40
2018-01-18T12:33:29.093Z,6.94
2018-01-18T12:35:57.465Z,7.12
2018-01-18T12:38:25.828Z,7.05
2018-01-18T12:40:54.249Z,7.15
2018-01-18T12:43:22.727Z,7.16
2018-01-18T12:45:51.116Z,7.06
2018-01-18T12:48:19.477Z,6.90
2018-01-18T12:50:47.850Z,7.10
2018-01-18T12:53:16.213Z,7.24
2018-01-18T12:55:44.612Z,7.20
2018-01-18T12:58:13.001Z,7.45
2018-01-18T13:00:41.369Z,7.67
2018-01-18T13:03:09.748Z,7.75
2018-01-18T13:05:38.185Z,7.90
2018-01-18T13:08:06.574Z,8.06
2018-01-18T13:10:34.995Z,7.64
2018-01-18T13:13:03.379Z,7.79
2018-01-18T13:15:31.752Z,7.94
2018-01-18T13:18:00.111Z,8.19
2018-01-18T13:20:28.493Z,8.46
2018-01-18T13:22:56.845Z,8.82
2018-01-18T13:25:25.273Z,9.10
2018-01-18T13:27:53.637Z,9.08
2018-01-18T13:30:22.056Z,8.80
2018-01-18T13:32:50.828Z,8.93
2018-01-18T13:35:19.281Z,9.02
2018-01-18T13:37:47.653Z,9.03
2018-01-18T13:40:16.028Z,9.43
2018-01-18T13:42:44.428Z,9.14
2018-01-18T13:45:12.803Z,9.52
2018-01-18T13:47:41.189Z,9.72
2018-01-18T13:50:09.547Z,10.06
2018-01-18T13:52:37.924Z,9.97
2018-01-18T13:55:06.320Z,9.61
2018-01-18T13:57:34.702Z,9.90
2018-01-18T14:00:03.060Z,9.64
2018-01-18T14:02:31.417Z,10.06
2018-01-18T14:04:59.798Z,9.81
2018-01-18T14:07:28.220Z,9.78
2018-01-18T14:09:56.684Z,9.84
2018-01-18T14:12:25.068Z,9.73
2018-01-18T14:14:53.439Z,9.89
2018-01-18T14:17:21.795Z,9.47
2018-01-18T14:19:50.155Z,9.92
2018-01-18T14:22:18.960Z,9.80
2018-01-18T14:24:47.324Z,9.35
2018-01-18T14:27:16.072Z,9.27
2018-01-18T14:29:44.433Z,9.50
2018-01-18T14:32:12.813Z,9.16
2018-01-18T14:34:41.187Z,9.14
2018-01-18T14:37:09.585Z,9.32
2018-01-18T14:39:37.944Z,9.19
2018-01-18T14:42:06.300Z,9.41
2018-01-18T14:44:34.671Z,9.32
2018-01-18T14:47:03.106Z,9.11
2018-01-18T14:49:31.485Z,8.71
2018-01-18T14:51:59.837Z,9.04
2018-01-18T14:54:28.233Z,8.88
2018-01-18T14:56:56.615Z,8.32
2018-01-18T14:59:25.932Z,8.79
2018-01-18T15:01:54.284Z,8.83
2018-01-18T15:04:22.662Z,9.01
2018-01-18T15:06:51.020Z,9.03
2018-01-18T15:09:19.436Z,9.19
2018-01-18T15:11:47.803Z,8.97
2018-01-18T15:14:16.145Z,9.21
2018-01-18T15:16:44.583Z,9.21
2018-01-18T15:19:12.944Z,9.25
2018-01-18T15:21:41.299Z,9.24
2018-01-18T15:24:09.683Z,9.29
2018-01-18T15:26:38.082Z,9.23
2018-01-18T15:29:06.460Z,9.10
2018-01-18T15:31:34.908Z,8.97
2018-01-18T15:34:03.268Z,9.02
2018-01-18T15:36:31.641Z,9.13
2018-01-18T15:39:00.403Z,9.25
2018-01-18T15:41:28.755Z,9.26
2018-01-18T15:43:57.124Z,8.81
2018-01-18T15:46:25.476Z,8.54
2018-01-18T15:48:53.848Z,8.76
2018-01-18T15:51:22.286Z,8.76
2018-01-18T15:53:50.666Z,8.76
2018-01-18T15:56:19.025Z,8.60
2018-01-18T15:58:47.405Z,8.75
2018-01-18T16:01:15.782Z,8.77
2018-01-18T16:03:44.128Z,8.52
2018-01-18T16:06:12.480Z,8.46
2018-01-18T16:08:41.332Z,8.40
2018-01-18T16:11:09.709Z,8.52
2018-01-18T16:13:38.090Z,8.82
2018-01-18T16:16:06.448Z,8.45
2018-01-18T16:18:34.804Z,8.19
2018-01-18T16:21:03.166Z,8.20
2018-01-18T16:23:31.635Z,8.23
2018-01-18T16:26:00.091Z,8.12
2018-01-18T16:28:28.512Z,8.36
2018-01-18T16:30:57.600Z,8.28
2018-01-18T16:33:26.376Z,8.62
2018-01-18T16:35:54.850Z,8.50
2018-01-18T16:38:23.291Z,8.29
2018-01-18T16:40:51.664Z,8.24
2018-01-18T16:43:20.019Z,8.54
2018-01-18T16:45:56.460Z,8.64
2018-01-18T16:48:24.845Z,8.51
2018-01-18T16:50:53.617Z,8.28
2018-01-18T16:53:21.984Z,8.11
2018-01-18T16:55:50.354Z,7.85
2018-01-18T16:58:18.802Z,7.84
2018-01-18T17:00:47.216Z,7.86
2018-01-18T17:03:15.576Z,7.60
2018-01-18T17:05:43.931Z,7.69
2018-01-18T17:08:12.365Z,7.37
2018-01-18T17:10:40.738Z,7.48
2018-01-18T17:13:09.223Z,7.54
2018-01-18T17:15:37.601Z,7.17
2018-01-18T17:18:05.978Z,6.93
2018-01-18T17:20:34.360Z,6.81
2018-01-18T17:23:02.739Z,6.70
2018-01-18T17:25:31.120Z,6.42
2018-01-18T17:27:59.490Z,6.22
2018-01-18T17:30:27.840Z,6.33
2018-01-18T17:32:56.199Z,5.79
2018-01-18T17:35:24.576Z,5.73
2018-01-18T17:37:52.956Z,5.67
2018-01-18T17:40:21.319Z,5.60
2018-01-18T17:42:50.179Z,5.65
2018-01-18T17:45:18.658Z,5.66
2018-01-18T17:47:47.024Z,5.70
2018-01-18T17:50:15.425Z,5.63
2018-01-18T17:52:43.797Z,5.70
2018-01-18T17:55:38.010Z,5.42
2018-01-18T17:58:06.752Z,5.49
2018-01-18T18:00:35.111Z,5.58
2018-01-18T18:03:03.468Z,5.40
2018-01-18T18:05:31.836Z,5.40
2018-01-18T18:08:00.220Z,5.27
2018-01-18T18:10:28.577Z,5.49
2018-01-18T18:12:56.927Z,5.63
2018-01-18T18:15:26.236Z,5.53
2018-01-18T18:17:54.710Z,5.45
2018-01-18T18:20:23.163Z,5.55
2018-01-18T18:22:51.605Z,5.37
2018-01-18T18:25:20.356Z,5.25
2018-01-18T18:27:48.735Z,5.68
2018-01-18T18:30:17.092Z,5.72
2018-01-18T18:32:45.494Z,5.48
2018-01-18T18:35:13.844Z,5.62
2018-01-18T18:37:42.188Z,5.61
2018-01-18T18:40:10.968Z,5.60
2018-01-18T18:42:39.336Z,5.97
2018-01-18T18:45:07.715Z,5.89
2018-01-18T18:47:36.129Z,6.12
2018-01-18T18:50:04.888Z,5.54
2018-01-18T18:52:33.252Z,5.71
2018-01-18T18:55:01.621Z,5.83
2018-01-18T18:57:30.116Z,5.79
2018-01-18T18:59:58.476Z,5.89
2018-01-18T19:02:26.844Z,6.05
2018-01-18T19:04:55.252Z,5.97
2018-01-18T19:07:23.600Z,5.73
2018-01-18T19:09:52.042Z,6.02
2018-01-18T19:12:20.400Z,5.55
2018-01-18T19:14:49.000Z,5.87
2018-01-18T19:17:17.849Z,5.65
2018-01-18T19:19:46.350Z,5.85
2018-01-18T19:22:14.729Z,5.91
2018-01-18T19:24:43.096Z,6.02
2018-01-18T19:27:11.996Z,6.14
2018-01-18T19:29:40.355Z,6.20
2018-01-18T19:32:08.699Z,6.58
2018-01-18T19:34:37.077Z,6.61
2018-01-18T19:37:05.447Z,6.20
2018-01-18T19:39:33.807Z,6.20
2018-01-18T19:42:02.261Z,6.39
2018-01-18T19:44:30.655Z,6.29
2018-01-18T19:46:59.057Z,6.18
2018-01-18T19:49:28.513Z,6.26
2018-01-18T19:51:56.901Z,6.53
2018-01-18T19:54:25.263Z,6.71
2018-01-18T19:56:55.337Z,6.64
2018-01-18T19:59:24.106Z,6.34
2018-01-18T20:01:52.468Z,6.58
2018-01-18T20:04:20.844Z,6.53
2018-01-18T20:06:49.207Z,6.42
2018-01-18T20:09:17.760Z,6.66
2018-01-18T20:11:46.183Z,6.57
2018-01-18T20:14:14.573Z,6.81
2018-01-18T20:16:42.937Z,6.67
2018-01-18T20:19:11.289Z,6.89
2018-01-18T20:21:39.648Z,6.64
2018-01-18T20:24:08.081Z,6.69
2018-01-18T20:26:36.532Z,6.42
2018-01-18T20:29:05.036Z,6.46
2018-01-18T20:31:33.417Z,6.36
2018-01-18T20:34:01.800Z,6.68
2018-01-18T20:36:30.276Z,6.89
2018-01-18T20:38:58.626Z,6.58
2018-01-18T20:41:26.970Z,6.32
2018-01-18T20:43:55.318Z,6.88
2018-01-18T20:46:23.678Z,6.88
2018-01-18T20:48:52.035Z,6.88
2018-01-18T20:51:20.453Z,6.92
2018-01-18T20:53:48.864Z,6.76
2018-01-18T20:56:17.718Z,6.82
2018-01-18T20:58:46.083Z,6.79
2018-01-18T21:01:14.461Z,6.93
2018-01-18T21:03:42.838Z,7.11
2018-01-18T21:06:11.417Z,7.29
2018-01-18T21:08:39.803Z,7.23
2018-01-18T21:11:08.152Z,7.09
2018-01-18T21:13:36.577Z,7.36
2018-01-18T21:16:04.926Z,7.32
2018-01-18T21:18:33.336Z,7.17
2018-01-18T21:21:01.705Z,7.44
2018-01-18T21:23:30.057Z,7.19
2018-01-18T21:25:58.476Z,6.98
2018-01-18T21:28:26.825Z,7.17
2018-01-18T21:30:55.228Z,6.93
2018-01-18T21:33:23.585Z,7.07
2018-01-18T21:35:51.936Z,7.06
2018-01-18T21:38:20.304Z,6.93
2018-01-18T21:40:49.057Z,7.31
2018-01-18T21:43:17.492Z,7.50
2018-01-18T21:48:13.975Z,7.34
2018-01-18T21:50:42.352Z,7.43
2018-01-18T21:53:10.695Z,7.78
2018-01-18T21:55:39.041Z,7.58
2018-01-18T21:58:07.512Z,7.33
2018-01-18T22:00:35.855Z,7.43
2018-01-18T22:03:04.257Z,7.87
2018-01-18T22:05:32.632Z,8.12
2018-01-18T22:08:00.973Z,7.98
2018-01-18T22:10:29.344Z,7.70
2018-01-18T22:12:57.784Z,7.35
2018-01-18T22:15:26.251Z,7.61
2018-01-18T22:17:54.641Z,7.34
2018-01-18T22:20:23.092Z,7.55
2018-01-18T22:22:51.458Z,7.77
2018-01-18T22:25:19.820Z,7.67
2018-01-18T22:27:48.322Z,7.84
2018-01-18T22:30:16.731Z,7.92
2018-01-18T22:32:45.092Z,7.99
2018-01-18T22:35:13.453Z,8.03
2018-01-18T22:37:41.939Z,8.07
2018-01-18T22:40:10.319Z,8.05
2018-01-18T22:42:38.665Z,7.98
2018-01-18T22:45:07.409Z,7.94
2018-01-18T22:47:35.814Z,8.05
2018-01-18T22:50:04.188Z,8.08
2018-01-18T22:52:32.638Z,7.44
2018-01-18T22:55:00.988Z,7.65
2018-01-18T22:57:29.515Z,7.53
2018-01-18T22:59:57.865Z,7.95
2018-01-18T23:02:26.226Z,8.15
2018-01-18T23:04:54.582Z,7.88
2018-01-18T23:07:23.339Z,7.87
2018-01-18T23:09:51.719Z,7.43
2018-01-18T23:12:20.200Z,7.53
2018-01-18T23:14:55.197Z,7.78
2018-01-18T23:17:23.571Z,7.62
2018-01-18T23:19:51.922Z,7.52
2018-01-18T23:22:20.744Z,7.58
2018-01-18T23:24:49.116Z,8.15
2018-01-18T23:27:17.499Z,7.47
2018-01-18T23:29:45.877Z,7.55
2018-01-18T23:32:14.353Z,7.73
2018-01-18T23:34:42.709Z,7.61
2018-01-18T23:37:11.468Z,7.88
2018-01-18T23:39:39.961Z,7.80
2018-01-18T23:42:08.327Z,7.41
2018-01-18T23:44:36.691Z,7.39
2018-01-18T23:47:05.594Z,7.69
2018-01-18T23:49:33.948Z,7.99
2018-01-18T23:52:02.308Z,8.06
2018-01-18T23:54:30.742Z,7.82
2018-01-18T23:56:59.089Z,8.09
2018-01-18T23:59:27.460Z,7.88
